Bahawalpur Weather



Bahawalpur's Current Weather

Temprature 20.52o clear sky

clear sky

Rain: 0 %

Min Temprature20.52o
Max Temprature20.52o
Humidity23
Wind Speed2.47 m/h
Sun Rise06:23:23
Sun Set17:30:31
Current Time: 28-Oct-2020 04:51:23
Lat/Lon: 29.4, 71.68




Bahawalpur's Geo Location



Bahawalpur's Weather Forecast

Time Overall Temp Min Temp Max Temp Humidity Wind Speed Rain
28-Oct-2020 (Wed)
05:00:00 clear sky 21.030 20.520 21.030 22 2.47 m/h 0 %
08:00:00 clear sky 24.280 24.280 25.040 17 3.15 m/h 0 %
11:00:00 clear sky 32.320 32.320 33.060 11 4.13 m/h 0 %
14:00:00 clear sky 35.020 35.020 35.130 10 4.13 m/h 0 %
17:00:00 clear sky 31.220 31.220 31.220 12 3.25 m/h 0 %
20:00:00 clear sky 26.000 26.000 26.000 17 3.41 m/h 0 %
23:00:00 clear sky 24.360 24.360 24.360 18 3.57 m/h 0 %
29-Oct-2020 (Thu)
02:00:00 clear sky 21.700 21.700 21.700 21 2.79 m/h 0 %
05:00:00 clear sky 20.760 20.760 20.760 24 3.08 m/h 0 %
08:00:00 clear sky 24.760 24.760 24.760 19 1.92 m/h 0 %
11:00:00 clear sky 32.080 32.080 32.080 13 2.96 m/h 0 %
14:00:00 clear sky 34.760 34.760 34.760 10 2.99 m/h 0 %
17:00:00 clear sky 31.200 31.200 31.200 13 2.34 m/h 0 %
20:00:00 clear sky 23.730 23.730 23.730 20 1.18 m/h 0 %
23:00:00 clear sky 23.030 23.030 23.030 20 2.87 m/h 0 %
30-Oct-2020 (Fri)
02:00:00 clear sky 19.790 19.790 19.790 24 1.23 m/h 0 %
05:00:00 clear sky 19.630 19.630 19.630 24 2.71 m/h 0 %
08:00:00 clear sky 23.740 23.740 23.740 19 2.79 m/h 0 %
11:00:00 clear sky 32.270 32.270 32.270 11 1.99 m/h 0 %
14:00:00 clear sky 34.490 34.490 34.490 10 1.51 m/h 0 %
17:00:00 clear sky 30.340 30.340 30.340 13 1.8 m/h 0 %
20:00:00 clear sky 23.510 23.510 23.510 19 2.79 m/h 0 %
23:00:00 clear sky 21.120 21.120 21.120 22 1.74 m/h 0 %
31-Oct-2020 (Sat)
02:00:00 clear sky 20.110 20.110 20.110 23 2.76 m/h 0 %
05:00:00 clear sky 19.460 19.460 19.460 24 2.66 m/h 0 %
08:00:00 clear sky 23.480 23.480 23.480 19 1.97 m/h 0 %
11:00:00 clear sky 32.240 32.240 32.240 11 0.72 m/h 0 %
14:00:00 clear sky 34.280 34.280 34.280 10 2 m/h 0 %
17:00:00 clear sky 29.950 29.950 29.950 13 1.69 m/h 0 %
20:00:00 clear sky 22.520 22.520 22.520 20 0.69 m/h 0 %
23:00:00 clear sky 21.360 21.360 21.360 21 1.24 m/h 0 %
01-Nov-2020 (Sun)
02:00:00 clear sky 20.220 20.220 20.220 23 1.31 m/h 0 %
05:00:00 clear sky 19.470 19.470 19.470 24 0.7 m/h 0 %
08:00:00 clear sky 23.890 23.890 23.890 18 0.84 m/h 0 %
11:00:00 clear sky 32.810 32.810 32.810 11 3.31 m/h 0 %
14:00:00 clear sky 34.950 34.950 34.950 9 3.29 m/h 0 %
17:00:00 clear sky 30.140 30.140 30.140 11 2.02 m/h 0 %
20:00:00 clear sky 22.380 22.380 22.380 18 0.35 m/h 0 %
23:00:00 clear sky 20.540 20.540 20.540 20 2.11 m/h 0 %
02-Nov-2020 (Mon)
02:00:00 clear sky 19.090 19.090 19.090 22 1.4 m/h 0 %


Bahawalpur's Tourist Spots

Historical Places in Bahawalpur

Famous Cities (60)